Time;durP1;ratioP1;P1;durP2;ratioP2;P2;SDS_P1;SDS_P2;PMS_P1;PMS_P2;Temp;Humidity;BMP_temperature;BMP_pressure;BME280_temperature;BME280_humidity;BME280_pressure;Samples;Min_cycle;Max_cycle;Signal;HPM_P1;HPM_P2
2024/03/31 00:02:15;;;;;;;32.13;20.88;;;8.40;99.90;;;;;;5077123;28;20021;-72
2024/03/31 00:04:40;;;;;;;28.70;19.75;;;8.50;99.90;;;;;;5076705;28;20025;-72
2024/03/31 00:07:06;;;;;;;24.85;18.23;;;8.40;99.90;;;;;;5076758;28;20027;-71
2024/03/31 00:09:32;;;;;;;23.38;17.70;;;8.30;99.90;;;;;;5076460;28;20024;-71
2024/03/31 00:11:57;;;;;;;23.85;17.38;;;8.20;99.90;;;;;;5076414;28;20020;-71
2024/03/31 00:14:24;;;;;;;25.23;17.85;;;8.00;99.90;;;;;;5076410;28;20020;-71
2024/03/31 00:16:49;;;;;;;28.40;18.33;;;8.00;99.90;;;;;;5076497;28;20071;-71
2024/03/31 00:19:15;;;;;;;32.47;21.73;;;7.90;99.90;;;;;;5076334;28;20024;-71
2024/03/31 00:21:40;;;;;;;33.70;22.13;;;7.90;99.90;;;;;;5076761;28;20032;-71
2024/03/31 00:24:06;;;;;;;34.92;23.27;;;7.90;99.90;;;;;;5076466;28;20020;-71
2024/03/31 00:26:31;;;;;;;30.77;21.33;;;7.90;99.90;;;;;;5076159;28;20024;-71
2024/03/31 00:28:57;;;;;;;32.03;21.77;;;7.90;99.90;;;;;;5076117;28;20035;-71
2024/03/31 00:31:24;;;;;;;29.65;19.95;;;7.80;99.90;;;;;;5076389;28;20032;-72
2024/03/31 00:33:49;;;;;;;31.63;21.20;;;7.80;99.90;;;;;;5076118;28;20436;-72
2024/03/31 00:36:15;;;;;;;32.13;22.48;;;7.70;99.90;;;;;;5076063;28;20037;-72
2024/03/31 00:38:40;;;;;;;39.10;23.10;;;7.70;99.90;;;;;;5076298;28;20030;-72
2024/03/31 00:41:06;;;;;;;32.55;22.20;;;7.70;99.90;;;;;;5076243;28;20028;-72
2024/03/31 00:43:31;;;;;;;31.27;22.42;;;7.60;99.90;;;;;;5075890;28;20107;-72
2024/03/31 00:45:57;;;;;;;34.08;23.60;;;7.70;99.90;;;;;;5075841;28;20033;-72
2024/03/31 00:48:23;;;;;;;33.78;23.17;;;7.70;99.90;;;;;;5075835;28;20054;-72
2024/03/31 00:50:48;;;;;;;33.60;23.65;;;7.70;99.90;;;;;;5075870;28;20488;-72
2024/03/31 00:53:14;;;;;;;44.80;25.13;;;7.80;99.90;;;;;;5075888;28;20024;-72
2024/03/31 00:55:39;;;;;;;36.15;24.20;;;7.80;99.90;;;;;;5076193;28;20032;-72
2024/03/31 00:58:05;;;;;;;33.72;23.45;;;7.90;99.90;;;;;;5074774;28;20032;-71
2024/03/31 01:00:32;;;;;;;34.55;23.73;;;7.90;99.90;;;;;;5075732;28;20024;-71
2024/03/31 01:02:58;;;;;;;38.95;23.98;;;8.00;99.90;;;;;;5075925;28;20082;-71
2024/03/31 01:05:24;;;;;;;37.17;23.30;;;8.20;99.90;;;;;;5075955;28;20107;-71
2024/03/31 01:07:49;;;;;;;37.35;23.48;;;8.30;99.90;;;;;;5075504;28;20538;-71
2024/03/31 01:10:15;;;;;;;36.35;23.42;;;8.30;99.90;;;;;;5075773;28;20060;-71
2024/03/31 01:12:41;;;;;;;37.15;23.02;;;8.20;99.90;;;;;;5075445;28;20028;-71
2024/03/31 01:15:07;;;;;;;34.97;23.17;;;8.20;99.90;;;;;;5075717;28;20059;-71
2024/03/31 01:17:33;;;;;;;32.20;21.33;;;8.10;99.90;;;;;;5075280;28;20051;-71
2024/03/31 01:19:59;;;;;;;30.45;20.73;;;8.10;99.90;;;;;;5075249;28;20036;-71
2024/03/31 01:22:26;;;;;;;36.30;23.15;;;8.00;99.90;;;;;;5075594;28;20470;-71
2024/03/31 01:24:53;;;;;;;33.15;21.35;;;7.90;99.90;;;;;;5075467;28;20099;-71
2024/03/31 01:27:18;;;;;;;28.33;20.55;;;7.80;99.90;;;;;;5075458;28;20036;-71
2024/03/31 01:29:44;;;;;;;35.75;20.98;;;7.80;99.90;;;;;;5075540;28;20029;-71
2024/03/31 01:32:09;;;;;;;28.63;19.58;;;7.70;99.90;;;;;;5075130;28;20048;-71
2024/03/31 01:34:35;;;;;;;33.47;21.45;;;7.70;99.90;;;;;;5075044;28;20471;-71
2024/03/31 01:37:01;;;;;;;30.35;21.35;;;7.60;99.90;;;;;;5075304;28;20028;-72
2024/03/31 01:39:27;;;;;;;34.10;20.80;;;7.60;99.90;;;;;;5074849;28;20036;-72
2024/03/31 01:41:52;;;;;;;28.52;19.65;;;7.50;99.90;;;;;;5075269;28;20058;-72
2024/03/31 01:44:18;;;;;;;29.63;20.98;;;7.50;99.90;;;;;;5075119;28;20470;-72
2024/03/31 01:46:43;;;;;;;33.35;22.42;;;7.40;99.90;;;;;;5075118;28;20028;-72
2024/03/31 01:49:09;;;;;;;32.45;21.95;;;7.40;99.90;;;;;;5074736;28;20436;-72
2024/03/31 01:51:34;;;;;;;32.50;22.60;;;7.40;99.90;;;;;;5074574;28;20470;-72
2024/03/31 01:54:00;;;;;;;33.50;21.45;;;7.40;99.90;;;;;;5074597;28;20024;-72
2024/03/31 01:56:25;;;;;;;30.27;20.42;;;7.40;99.90;;;;;;5074950;28;20035;-71
2024/03/31 01:58:51;;;;;;;35.05;22.90;;;7.40;99.90;;;;;;5074381;28;20035;-71
2024/03/31 02:01:17;;;;;;;35.97;23.95;;;7.40;99.90;;;;;;5074880;28;20024;-71
2024/03/31 02:03:42;;;;;;;34.35;22.65;;;7.40;99.90;;;;;;5074421;28;20487;-71
2024/03/31 02:06:09;;;;;;;31.38;21.52;;;7.40;99.90;;;;;;5074262;28;20021;-71
2024/03/31 02:08:35;;;;;;;29.98;20.38;;;7.40;99.90;;;;;;5074288;28;20028;-71
2024/03/31 02:11:00;;;;;;;33.20;22.27;;;7.40;99.90;;;;;;5074462;28;20044;-71
2024/03/31 02:13:26;;;;;;;34.83;23.13;;;7.40;99.90;;;;;;5074161;28;20028;-71
2024/03/31 02:15:52;;;;;;;36.08;23.60;;;7.40;99.90;;;;;;5074238;28;20113;-71
2024/03/31 02:18:17;;;;;;;29.38;20.85;;;7.40;99.90;;;;;;5074000;28;20029;-71
2024/03/31 02:20:43;;;;;;;33.05;22.25;;;7.40;99.90;;;;;;5074518;28;20024;-71
2024/03/31 02:23:09;;;;;;;32.55;22.73;;;7.40;99.90;;;;;;5073882;28;20117;-72
2024/03/31 02:25:35;;;;;;;35.05;22.30;;;7.40;99.90;;;;;;5074149;28;20028;-71
2024/03/31 02:28:00;;;;;;;39.20;24.83;;;7.40;99.90;;;;;;5074125;28;20074;-71
2024/03/31 02:30:26;;;;;;;34.40;23.50;;;7.50;99.90;;;;;;5073843;28;20025;-72
2024/03/31 02:32:52;;;;;;;32.55;22.67;;;7.50;99.90;;;;;;5073861;28;20427;-72
2024/03/31 02:35:17;;;;;;;33.70;22.45;;;7.50;99.90;;;;;;5073829;28;20027;-72
2024/03/31 02:37:46;;;;;;;31.48;21.65;;;7.50;99.90;;;;;;5074198;28;20066;-72
2024/03/31 02:40:11;;;;;;;34.40;22.50;;;7.50;99.90;;;;;;5073727;28;20115;-72
2024/03/31 02:42:37;;;;;;;36.60;23.10;;;7.50;99.90;;;;;;5074118;28;20052;-72
2024/03/31 02:45:03;;;;;;;36.33;23.83;;;7.50;99.90;;;;;;5074002;28;20031;-73
2024/03/31 02:47:29;;;;;;;37.88;23.63;;;7.50;99.90;;;;;;5073595;28;20493;-73
2024/03/31 02:49:55;;;;;;;35.60;24.23;;;7.50;99.90;;;;;;5073882;28;20032;-72
2024/03/31 02:52:20;;;;;;;37.67;24.23;;;7.60;99.90;;;;;;5073488;28;20037;-72
2024/03/31 02:54:46;;;;;;;32.47;22.88;;;7.60;99.90;;;;;;5073793;28;20107;-72
2024/03/31 02:57:12;;;;;;;31.75;20.67;;;7.60;99.90;;;;;;5073656;28;20039;-72
2024/03/31 02:59:41;;;;;;;39.97;27.05;;;7.60;99.90;;;;;;5073291;28;20035;-72
2024/03/31 03:02:06;;;;;;;39.85;26.63;;;7.70;99.90;;;;;;5073701;28;20074;-72
2024/03/31 03:04:32;;;;;;;42.67;28.75;;;7.70;99.90;;;;;;5073606;28;20025;-72
2024/03/31 03:06:58;;;;;;;46.95;27.67;;;7.70;99.90;;;;;;5073566;28;20032;-72
2024/03/31 03:09:23;;;;;;;38.85;26.40;;;7.80;99.90;;;;;;5073490;28;20039;-71
2024/03/31 03:11:49;;;;;;;42.13;28.40;;;7.80;99.90;;;;;;5073565;28;20039;-71
2024/03/31 03:14:14;;;;;;;43.35;28.55;;;7.80;99.90;;;;;;5073588;28;20029;-71
2024/03/31 03:16:40;;;;;;;41.92;29.30;;;7.80;99.90;;;;;;5073061;28;20049;-71
2024/03/31 03:19:05;;;;;;;48.38;31.77;;;7.90;99.90;;;;;;5072937;28;20429;-71
2024/03/31 03:21:31;;;;;;;48.35;31.15;;;7.90;99.90;;;;;;5072826;28;20024;-71
2024/03/31 03:23:56;;;;;;;46.25;31.23;;;7.90;99.90;;;;;;5073534;28;20071;-71
2024/03/31 03:26:22;;;;;;;46.35;31.55;;;7.90;99.90;;;;;;5073014;28;20025;-71
2024/03/31 03:28:47;;;;;;;48.13;32.85;;;8.00;99.90;;;;;;5073257;28;20478;-71
2024/03/31 03:31:13;;;;;;;45.38;32.58;;;8.00;99.90;;;;;;5072894;28;20024;-71
2024/03/31 03:33:39;;;;;;;43.05;31.02;;;8.00;99.90;;;;;;5073513;28;20020;-71
2024/03/31 03:36:05;;;;;;;50.03;31.77;;;8.00;99.90;;;;;;5073297;28;20056;-71
2024/03/31 03:38:31;;;;;;;46.78;31.73;;;8.10;99.90;;;;;;5073120;28;20497;-71
2024/03/31 03:40:58;;;;;;;48.47;32.53;;;8.00;99.90;;;;;;5072780;28;20021;-71
2024/03/31 03:43:25;;;;;;;47.53;31.40;;;8.10;99.90;;;;;;5073277;28;20025;-71
2024/03/31 03:45:50;;;;;;;46.47;32.60;;;8.10;99.90;;;;;;5073138;28;20107;-71
2024/03/31 03:48:16;;;;;;;51.78;34.88;;;8.10;99.90;;;;;;5073207;28;20063;-71
2024/03/31 03:50:41;;;;;;;48.47;32.28;;;8.10;99.90;;;;;;5072772;28;20020;-71
2024/03/31 03:53:07;;;;;;;49.42;31.63;;;8.10;99.90;;;;;;5072726;28;20070;-72
2024/03/31 03:55:33;;;;;;;45.75;32.35;;;8.10;99.90;;;;;;5073138;28;20497;-72
2024/03/31 03:57:58;;;;;;;51.42;33.65;;;8.10;99.90;;;;;;5073168;28;20024;-72
2024/03/31 04:00:24;;;;;;;46.47;33.28;;;8.20;99.90;;;;;;5072674;28;20071;-72
2024/03/31 04:02:50;;;;;;;48.85;33.45;;;8.20;99.90;;;;;;5072652;28;20124;-72
2024/03/31 04:05:15;;;;;;;50.42;33.33;;;8.10;99.90;;;;;;5072959;28;20050;-72
2024/03/31 04:07:41;;;;;;;53.45;35.13;;;8.20;99.90;;;;;;5072962;28;20033;-72
2024/03/31 04:10:07;;;;;;;56.35;35.15;;;8.20;99.90;;;;;;5072624;28;20086;-72
2024/03/31 04:12:32;;;;;;;48.70;33.47;;;8.20;99.90;;;;;;5072976;28;20479;-72
2024/03/31 04:14:59;;;;;;;48.40;33.13;;;8.20;99.90;;;;;;5072569;28;20039;-71
2024/03/31 04:17:24;;;;;;;52.47;34.47;;;8.20;99.90;;;;;;5072590;28;20059;-71
2024/03/31 04:19:50;;;;;;;48.08;33.55;;;8.20;99.90;;;;;;5072570;28;20033;-71
2024/03/31 04:22:15;;;;;;;52.45;34.47;;;8.20;99.90;;;;;;5072934;28;20024;-71
2024/03/31 04:24:41;;;;;;;52.75;33.45;;;8.20;99.90;;;;;;5072493;28;20016;-71
2024/03/31 04:27:07;;;;;;;49.00;33.45;;;8.20;99.90;;;;;;5072714;28;20116;-71
2024/03/31 04:29:32;;;;;;;55.75;35.13;;;8.30;99.90;;;;;;5072720;28;20034;-71
2024/03/31 04:31:58;;;;;;;48.20;31.73;;;8.20;99.90;;;;;;5073119;28;20062;-71
2024/03/31 04:34:28;;;;;;;57.88;35.22;;;8.30;99.90;;;;;;5076520;28;20033;-71
2024/03/31 04:36:54;;;;;;;56.47;34.65;;;8.30;99.90;;;;;;5076418;28;20496;-71
2024/03/31 04:39:20;;;;;;;54.17;34.38;;;8.30;99.90;;;;;;5076323;28;20028;-71
2024/03/31 04:41:45;;;;;;;52.40;34.97;;;8.30;99.90;;;;;;5076429;28;20032;-71
2024/03/31 04:44:11;;;;;;;50.30;33.42;;;8.30;99.90;;;;;;5076229;28;20024;-71
2024/03/31 04:46:37;;;;;;;52.97;34.10;;;8.30;99.90;;;;;;5075853;28;20029;-71
2024/03/31 04:49:04;;;;;;;53.13;34.50;;;8.30;99.90;;;;;;5075784;28;20471;-72
2024/03/31 04:51:30;;;;;;;51.28;33.03;;;8.30;99.90;;;;;;5075778;28;20024;-72
2024/03/31 04:53:56;;;;;;;51.97;33.97;;;8.30;99.90;;;;;;5076178;28;20154;-72
2024/03/31 04:56:21;;;;;;;52.45;33.55;;;8.30;99.90;;;;;;5076034;28;20040;-72
2024/03/31 04:58:47;;;;;;;54.58;33.88;;;8.30;99.90;;;;;;5075888;28;20055;-72
2024/03/31 05:01:13;;;;;;;56.03;33.72;;;8.30;99.90;;;;;;5076055;28;20032;-72
2024/03/31 05:03:39;;;;;;;52.40;33.22;;;8.30;99.90;;;;;;5075971;28;20493;-72
2024/03/31 05:06:04;;;;;;;52.08;33.38;;;8.30;99.90;;;;;;5075430;28;20115;-72
2024/03/31 05:08:30;;;;;;;59.22;37.30;;;8.30;99.90;;;;;;5075928;28;20039;-72
2024/03/31 05:10:57;;;;;;;58.63;35.63;;;8.30;99.90;;;;;;5075445;28;20074;-72
2024/03/31 05:13:32;;;;;;;56.85;35.03;;;8.40;99.90;;;;;;5075428;28;20416;-72
2024/03/31 05:16:01;;;;;;;55.67;35.08;;;8.30;99.90;;;;;;5075179;28;20048;-71
2024/03/31 05:18:27;;;;;;;55.08;35.25;;;8.40;99.90;;;;;;5075256;28;20485;-71
2024/03/31 05:20:57;;;;;;;56.65;36.13;;;8.40;99.90;;;;;;5075173;28;20024;-71
2024/03/31 05:23:23;;;;;;;56.47;36.15;;;8.40;99.90;;;;;;5075055;28;20060;-71
2024/03/31 05:25:48;;;;;;;60.17;36.75;;;8.40;99.90;;;;;;5075273;28;20077;-72
2024/03/31 05:28:14;;;;;;;50.13;32.95;;;8.40;99.90;;;;;;5075579;28;20025;-72
2024/03/31 05:30:40;;;;;;;52.47;35.05;;;8.40;99.90;;;;;;5074980;28;20466;-72
2024/03/31 05:33:05;;;;;;;57.67;36.30;;;8.40;99.90;;;;;;5075324;28;20032;-72
2024/03/31 05:35:31;;;;;;;63.10;38.28;;;8.40;99.90;;;;;;5074955;28;20012;-71
2024/03/31 05:37:56;;;;;;;58.30;38.00;;;8.50;99.90;;;;;;5075296;28;20028;-71
2024/03/31 05:40:22;;;;;;;60.30;38.80;;;8.50;99.90;;;;;;5074679;28;20016;-71
2024/03/31 05:42:47;;;;;;;60.85;38.53;;;8.50;99.90;;;;;;5074768;28;20082;-72
2024/03/31 05:45:13;;;;;;;59.83;38.72;;;8.50;99.90;;;;;;5074580;28;20544;-72
2024/03/31 05:47:38;;;;;;;59.08;39.45;;;8.50;99.90;;;;;;5074984;28;20029;-71
2024/03/31 05:50:06;;;;;;;64.60;40.10;;;8.50;99.90;;;;;;5074987;28;20497;-71
2024/03/31 05:52:31;;;;;;;65.50;39.78;;;8.60;99.90;;;;;;5074955;28;20482;-71
2024/03/31 05:54:57;;;;;;;61.05;38.72;;;8.60;99.90;;;;;;5074988;28;20029;-71
2024/03/31 05:57:22;;;;;;;59.03;38.92;;;8.60;99.90;;;;;;5074494;28;20057;-71
2024/03/31 05:59:48;;;;;;;59.08;38.55;;;8.60;99.90;;;;;;5074723;28;20509;-72
2024/03/31 06:02:13;;;;;;;56.38;36.70;;;8.70;99.90;;;;;;5075004;28;20035;-71
2024/03/31 06:04:40;;;;;;;59.38;38.03;;;8.70;99.90;;;;;;5074306;28;20027;-71
2024/03/31 06:07:05;;;;;;;54.72;36.17;;;8.70;99.90;;;;;;5074671;28;20454;-71
2024/03/31 06:09:31;;;;;;;57.15;37.03;;;8.80;99.90;;;;;;5074766;28;20032;-73
2024/03/31 06:11:57;;;;;;;54.05;35.75;;;8.80;99.90;;;;;;5074182;28;20063;-72
2024/03/31 06:14:22;;;;;;;52.97;36.13;;;8.80;99.90;;;;;;5074205;28;20029;-72
2024/03/31 06:16:48;;;;;;;57.17;34.63;;;8.80;99.90;;;;;;5074243;28;20064;-72
2024/03/31 06:19:13;;;;;;;57.05;35.33;;;8.80;99.90;;;;;;5074207;28;20025;-72
2024/03/31 06:21:39;;;;;;;61.03;36.13;;;8.80;99.90;;;;;;5073961;28;20379;-72
2024/03/31 06:24:04;;;;;;;57.75;34.42;;;8.80;99.90;;;;;;5074308;28;20025;-72
2024/03/31 06:26:30;;;;;;;54.83;34.25;;;8.90;99.90;;;;;;5073975;28;20048;-72
2024/03/31 06:28:56;;;;;;;56.13;34.50;;;8.90;99.90;;;;;;5074410;28;20093;-71
2024/03/31 06:31:21;;;;;;;52.53;32.45;;;9.00;99.90;;;;;;5074194;28;20111;-71
2024/03/31 06:33:47;;;;;;;47.75;32.67;;;9.10;99.90;;;;;;5074256;28;20115;-71
2024/03/31 06:36:12;;;;;;;46.95;32.17;;;9.10;99.90;;;;;;5073762;28;20123;-71
2024/03/31 06:38:38;;;;;;;51.50;31.90;;;9.20;99.90;;;;;;5073615;28;20029;-73
2024/03/31 06:41:03;;;;;;;47.17;29.55;;;9.20;99.90;;;;;;5074047;28;20524;-72
2024/03/31 06:43:29;;;;;;;54.92;30.42;;;9.20;99.90;;;;;;5073958;28;20059;-71
2024/03/31 06:45:54;;;;;;;45.80;27.75;;;9.20;99.90;;;;;;5073988;28;20025;-71
2024/03/31 06:48:20;;;;;;;49.03;26.98;;;9.30;99.90;;;;;;5073582;28;20073;-71
2024/03/31 06:50:46;;;;;;;50.30;25.92;;;9.30;99.90;;;;;;5073937;28;20104;-72
2024/03/31 06:53:11;;;;;;;53.67;25.65;;;9.30;99.90;;;;;;5073893;28;20036;-72
2024/03/31 06:55:37;;;;;;;51.53;25.48;;;9.40;99.90;;;;;;5072679;28;20028;-71
2024/03/31 06:58:03;;;;;;;43.92;24.55;;;9.50;99.90;;;;;;5073722;28;20033;-71
2024/03/31 07:00:28;;;;;;;50.05;24.55;;;9.70;99.90;;;;;;5073469;28;20028;-71
2024/03/31 07:02:54;;;;;;;42.65;23.75;;;9.80;99.90;;;;;;5073574;28;20025;-71
2024/03/31 07:05:20;;;;;;;40.60;22.70;;;9.90;99.90;;;;;;5073255;28;20020;-71
2024/03/31 07:07:45;;;;;;;35.65;21.98;;;9.90;99.90;;;;;;5073626;28;20032;-71
2024/03/31 07:10:11;;;;;;;42.03;22.60;;;10.00;99.90;;;;;;5073163;28;20111;-71
2024/03/31 07:12:36;;;;;;;39.15;21.40;;;10.00;99.90;;;;;;5073601;28;20095;-70
2024/03/31 07:15:02;;;;;;;36.60;19.90;;;10.10;99.90;;;;;;5073483;28;20040;-72
2024/03/31 07:17:33;;;;;;;33.65;19.20;;;10.20;99.90;;;;;;5073139;28;20080;-71
2024/03/31 07:19:58;;;;;;;40.65;20.27;;;10.40;99.90;;;;;;5072924;28;20032;-72
2024/03/31 07:22:24;;;;;;;35.25;18.92;;;10.60;99.90;;;;;;5073087;28;20432;-72
2024/03/31 07:24:49;;;;;;;33.42;18.77;;;10.90;99.90;;;;;;5073495;28;20020;-72
2024/03/31 07:27:15;;;;;;;39.90;17.67;;;11.20;99.90;;;;;;5073031;28;20021;-71
2024/03/31 07:29:40;;;;;;;30.33;14.98;;;11.50;99.90;;;;;;5073261;28;20031;-71
2024/03/31 07:32:06;;;;;;;31.67;15.02;;;11.70;99.90;;;;;;5073260;28;20390;-71
2024/03/31 07:34:31;;;;;;;32.22;13.70;;;11.80;99.90;;;;;;5073324;28;20058;-72
2024/03/31 07:36:57;;;;;;;30.55;13.48;;;12.00;99.90;;;;;;5073215;28;20031;-71
2024/03/31 07:39:23;;;;;;;28.20;13.68;;;12.10;99.90;;;;;;5072740;28;20494;-71
2024/03/31 07:41:48;;;;;;;24.65;12.52;;;12.10;99.90;;;;;;5073376;28;20036;-71
2024/03/31 07:44:15;;;;;;;26.48;12.05;;;12.40;99.90;;;;;;5072771;28;20021;-71
2024/03/31 07:46:40;;;;;;;29.40;10.23;;;13.90;99.90;;;;;;5073034;28;20036;-71
2024/03/31 07:49:06;;;;;;;25.63;9.20;;;15.50;30.90;;;;;;5073126;28;20036;-71
2024/03/31 07:51:31;;;;;;;20.50;8.63;;;17.00;1.00;;;;;;5073129;28;20376;-71
2024/03/31 07:53:57;;;;;;;21.42;8.25;;;17.40;99.90;;;;;;5073183;28;20496;-71
2024/03/31 07:56:22;;;;;;;18.70;8.30;;;17.20;99.90;;;;;;5073115;28;20052;-71
2024/03/31 07:58:48;;;;;;;15.65;7.63;;;16.10;99.90;;;;;;5073061;28;20071;-73
2024/03/31 08:01:14;;;;;;;21.30;8.70;;;15.50;1.00;;;;;;5073017;28;20032;-73
2024/03/31 08:03:39;;;;;;;18.85;7.60;;;14.80;1.00;;;;;;5072510;28;20060;-73
2024/03/31 08:06:05;;;;;;;20.25;7.25;;;14.50;1.00;;;;;;5072988;28;20028;-72
2024/03/31 08:08:30;;;;;;;21.17;7.72;;;14.40;1.00;;;;;;5075921;28;20056;-71
2024/03/31 08:10:56;;;;;;;18.58;7.22;;;14.20;1.00;;;;;;5076937;28;20055;-72
2024/03/31 08:13:21;;;;;;;24.02;6.90;;;14.20;1.30;;;;;;5076947;28;20028;-73
2024/03/31 08:15:47;;;;;;;21.85;5.47;;;14.40;1.00;;;;;;5076868;28;20087;-72
2024/03/31 08:18:13;;;;;;;13.77;5.50;;;14.50;1.00;;;;;;5076255;28;20048;-73
2024/03/31 08:20:39;;;;;;;19.90;5.65;;;14.70;1.00;;;;;;5076768;28;20056;-72
2024/03/31 08:23:04;;;;;;;12.90;5.57;;;14.90;1.00;;;;;;5076250;28;20524;-73
2024/03/31 08:25:30;;;;;;;15.93;6.22;;;15.20;1.00;;;;;;5076359;28;20039;-72
2024/03/31 08:27:56;;;;;;;13.75;5.88;;;15.30;1.00;;;;;;5076601;28;20028;-72
2024/03/31 08:30:22;;;;;;;17.52;5.82;;;15.30;1.00;;;;;;5076193;28;20086;-72
2024/03/31 08:32:47;;;;;;;12.63;5.45;;;15.00;1.00;;;;;;5076589;28;20122;-73
2024/03/31 08:35:14;;;;;;;21.15;6.00;;;14.40;1.00;;;;;;5075950;28;20066;-72
2024/03/31 08:37:39;;;;;;;15.25;5.68;;;14.30;1.00;;;;;;5075928;28;20047;-72
2024/03/31 08:40:05;;;;;;;16.20;5.15;;;14.40;1.00;;;;;;5076065;28;20033;-73
2024/03/31 08:42:36;;;;;;;23.88;5.38;;;14.50;1.00;;;;;;5075921;28;20027;-72
2024/03/31 08:45:04;;;;;;;12.55;5.10;;;14.50;1.00;;;;;;5076333;28;20020;-72
2024/03/31 08:47:33;;;;;;;16.13;5.13;;;14.70;1.00;;;;;;5075928;28;20032;-73
2024/03/31 08:49:59;;;;;;;11.93;4.20;;;14.80;1.00;;;;;;5076030;28;20020;-73
2024/03/31 08:52:25;;;;;;;12.57;4.40;;;14.70;1.00;;;;;;5076158;28;20070;-73
2024/03/31 08:54:53;;;;;;;12.23;4.35;;;14.80;1.00;;;;;;5076236;28;20024;-72
2024/03/31 08:57:18;;;;;;;18.25;4.40;;;15.00;1.00;;;;;;5076135;28;20075;-73
2024/03/31 08:59:44;;;;;;;20.52;4.75;;;15.40;1.00;;;;;;5075729;28;20083;-73
2024/03/31 09:02:16;;;;;;;14.48;4.20;;;15.80;1.00;;;;;;5075568;28;20016;-72
2024/03/31 09:04:42;;;;;;;11.32;4.10;;;16.40;99.90;;;;;;5075743;28;20025;-72
2024/03/31 09:07:07;;;;;;;13.18;4.50;;;16.80;99.90;;;;;;5075645;28;20024;-74
2024/03/31 09:09:34;;;;;;;14.63;4.53;;;18.10;1.00;;;;;;5075955;28;20386;-73
2024/03/31 09:12:00;;;;;;;16.38;4.22;;;19.60;99.90;;;;;;5075451;28;20028;-73
2024/03/31 09:14:26;;;;;;;19.10;4.38;;;20.50;99.90;;;;;;5075911;28;20548;-73
2024/03/31 09:16:51;;;;;;;12.38;3.50;;;20.90;1.00;;;;;;5075465;28;20084;-74
2024/03/31 09:19:17;;;;;;;9.32;3.13;;;20.90;99.90;;;;;;5074446;28;20021;-73
2024/03/31 09:21:45;;;;;;;12.38;3.00;;;21.10;1.00;;;;;;5075714;28;20060;-72
2024/03/31 09:24:11;;;;;;;13.50;3.38;;;21.40;99.90;;;;;;5075438;28;20430;-72
2024/03/31 09:26:37;;;;;;;12.98;3.15;;;21.50;99.90;;;;;;5075575;28;20031;-72
2024/03/31 09:29:03;;;;;;;14.52;3.05;;;21.40;1.00;;;;;;5075486;28;20398;-72
2024/03/31 09:31:29;;;;;;;11.88;4.32;;;20.90;1.00;;;;;;5075444;28;20044;-72
2024/03/31 09:33:55;;;;;;;14.00;2.88;;;20.80;1.00;;;;;;5075701;28;20025;-73
2024/03/31 09:36:21;;;;;;;16.48;3.42;;;20.60;99.90;;;;;;5075511;28;20509;-73
2024/03/31 09:38:46;;;;;;;12.13;3.05;;;20.30;99.90;;;;;;5075145;28;20089;-72
2024/03/31 09:41:12;;;;;;;14.98;3.58;;;19.70;99.90;;;;;;5074790;28;20021;-72
2024/03/31 09:43:38;;;;;;;12.57;3.58;;;19.20;6.90;;;;;;5074804;28;20032;-72
2024/03/31 09:46:06;;;;;;;12.40;3.55;;;18.00;99.90;;;;;;5075193;28;20036;-72
2024/03/31 09:48:35;;;;;;;12.13;3.55;;;18.50;99.90;;;;;;5074827;28;20029;-72
2024/03/31 09:51:11;;;;;;;15.15;3.88;;;19.30;99.90;;;;;;5074668;28;20025;-73
2024/03/31 09:53:40;;;;;;;9.35;3.60;;;19.60;1.00;;;;;;5075113;28;20479;-72
2024/03/31 09:56:08;;;;;;;25.95;11.07;;;19.90;99.90;;;;;;5075093;28;20531;-72
2024/03/31 09:58:36;;;;;;;14.65;5.72;;;20.20;99.90;;;;;;5074556;28;20032;-73
2024/03/31 10:01:03;;;;;;;18.45;5.97;;;20.20;99.90;;;;;;5074866;28;20104;-72
2024/03/31 10:03:35;;;;;;;14.32;5.15;;;20.60;1.00;;;;;;5074760;28;20083;-72
2024/03/31 10:06:02;;;;;;;21.88;7.65;;;21.00;99.90;;;;;;5074550;28;20052;-73
2024/03/31 10:08:29;;;;;;;15.57;4.72;;;20.90;1.00;;;;;;5074531;28;20020;-73
2024/03/31 10:10:57;;;;;;;24.80;10.02;;;;;;;;;;5074468;28;20048;-73
2024/03/31 10:13:27;;;;;;;11.77;4.53;;;;;;;;;;5074740;28;20482;-73
2024/03/31 10:15:58;;;;;;;10.30;3.60;;;;;;;;;;5074203;28;20375;-74
2024/03/31 10:18:28;;;;;;;12.45;3.35;;;;;;;;;;5074460;28;20462;-74
2024/03/31 10:20:58;;;;;;;17.80;7.90;;;;;;;;;;5074545;28;20410;-74
2024/03/31 10:23:28;;;;;;;15.60;5.00;;;21.70;1.00;;;;;;5074657;28;20012;-74
2024/03/31 10:25:54;;;;;;;17.42;3.70;;;21.70;1.00;;;;;;5074253;28;20541;-74
2024/03/31 10:28:23;;;;;;;14.07;3.30;;;21.40;99.90;;;;;;5074147;28;20023;-74
2024/03/31 10:30:48;;;;;;;12.35;3.03;;;21.10;99.90;;;;;;5074415;28;20039;-74
2024/03/31 10:33:14;;;;;;;15.55;3.55;;;20.80;99.90;;;;;;5073910;28;20028;-75
2024/03/31 10:35:42;;;;;;;13.15;3.65;;;21.00;17.20;;;;;;5074278;28;20028;-74
2024/03/31 10:38:12;;;;;;;11.52;2.50;;;21.70;99.90;;;;;;5074127;28;20070;-74
2024/03/31 10:40:38;;;;;;;8.68;3.13;;;21.50;99.90;;;;;;5073622;28;20060;-73
2024/03/31 10:43:07;;;;;;;14.48;3.85;;;21.10;99.90;;;;;;5073986;28;20028;-74
2024/03/31 10:45:33;;;;;;;10.93;3.88;;;20.90;1.00;;;;;;5073703;28;20070;-73
2024/03/31 10:47:58;;;;;;;13.00;3.60;;;21.20;99.90;;;;;;5073889;28;20040;-74
2024/03/31 10:50:25;;;;;;;16.95;4.63;;;21.60;99.90;;;;;;5073650;28;20024;-72
2024/03/31 10:52:51;;;;;;;13.48;3.53;;;21.30;1.00;;;;;;5073966;28;20127;-74
2024/03/31 10:55:18;;;;;;;10.73;3.03;;;21.30;1.00;;;;;;5073802;28;20070;-74
2024/03/31 10:57:44;;;;;;;8.75;2.88;;;21.70;99.90;;;;;;5073794;28;20437;-73
2024/03/31 11:00:17;;;;;;;12.13;2.85;;;21.40;99.90;;;;;;5073507;28;20032;-73
2024/03/31 11:02:43;;;;;;;17.73;3.55;;;21.50;99.90;;;;;;5073318;28;20040;-74
2024/03/31 11:05:11;;;;;;;16.73;3.20;;;21.90;99.90;;;;;;5073292;28;20032;-74
2024/03/31 11:07:40;;;;;;;10.82;2.55;;;21.50;99.90;;;;;;5073813;28;20028;-73
2024/03/31 11:10:07;;;;;;;13.68;3.28;;;21.30;99.90;;;;;;5073293;28;20115;-73
2024/03/31 11:12:33;;;;;;;12.55;3.38;;;20.50;1.00;;;;;;5073515;28;20027;-73
2024/03/31 11:14:59;;;;;;;14.38;3.20;;;20.20;14.90;;;;;;5073479;28;20482;-74
2024/03/31 11:17:26;;;;;;;13.82;2.80;;;20.40;99.90;;;;;;5073178;28;20032;-73
2024/03/31 11:19:52;;;;;;;13.45;3.53;;;20.60;1.00;;;;;;5073310;28;20067;-73
2024/03/31 11:22:20;;;;;;;8.88;2.30;;;20.20;99.90;;;;;;5073146;28;20028;-73
2024/03/31 11:24:47;;;;;;;12.18;2.40;;;;;;;;;;5073323;28;20017;-73
2024/03/31 11:27:14;;;;;;;10.77;3.00;;;;;;;;;;5073425;28;20074;-73
2024/03/31 11:29:42;;;;;;;11.73;2.63;;;;;;;;;;5072939;28;20024;-73
2024/03/31 11:32:09;;;;;;;9.43;2.63;;;;;;;;;;5073373;28;20064;-73
2024/03/31 11:34:36;;;;;;;11.55;2.35;;;;;;;;;;5073283;28;20036;-73
2024/03/31 11:37:04;;;;;;;11.80;2.50;;;;;;;;;;5073270;28;20425;-73
2024/03/31 11:39:34;;;;;;;11.10;2.17;;;;;;;;;;5073169;28;20071;-73
2024/03/31 11:42:02;;;;;;;13.95;2.83;;;;;;;;;;5072615;28;20064;-73
2024/03/31 11:44:32;;;;;;;8.93;2.20;;;;;;;;;;5073189;28;20549;-73
2024/03/31 11:47:00;;;;;;;14.02;2.55;;;;;;;;;;5072936;28;20467;-73
2024/03/31 11:49:29;;;;;;;14.95;2.80;;;;;;;;;;5072910;28;20028;-73
2024/03/31 11:51:59;;;;;;;9.90;2.17;;;;;;;;;;5073251;28;20064;-73
2024/03/31 11:54:28;;;;;;;11.88;2.33;;;19.40;99.90;;;;;;5073122;28;20067;-73
2024/03/31 11:56:55;;;;;;;8.70;2.35;;;;;;;;;;5073199;28;20025;-73
2024/03/31 11:59:22;;;;;;;10.57;2.47;;;;;;;;;;5073004;28;20068;-73
2024/03/31 12:01:57;;;;;;;8.07;2.05;;;;;;;;;;5073047;28;20028;-73
2024/03/31 12:04:23;;;;;;;11.90;2.90;;;;;;;;;;5073006;28;20021;-73
2024/03/31 12:06:51;;;;;;;8.40;2.35;;;;;;;;;;5072785;28;20021;-73
2024/03/31 12:09:19;;;;;;;12.93;2.53;;;18.60;42.50;;;;;;5073003;28;20050;-74
2024/03/31 12:11:47;;;;;;;11.27;3.20;;;18.60;1.00;;;;;;5072565;28;20543;-72
2024/03/31 12:14:15;;;;;;;10.23;2.25;;;;;;;;;;5072559;28;20028;-73
2024/03/31 12:16:44;;;;;;;16.20;2.40;;;;;;;;;;5072802;28;20123;-73
2024/03/31 12:19:13;;;;;;;11.05;2.20;;;;;;;;;;5072812;28;20386;-73
2024/03/31 12:21:41;;;;;;;15.50;2.47;;;;;;;;;;5072424;28;20031;-73
2024/03/31 12:24:09;;;;;;;7.30;1.90;;;18.50;1.00;;;;;;5072539;28;20063;-73
2024/03/31 12:26:37;;;;;;;4.85;1.38;;;18.40;99.90;;;;;;5072828;28;20029;-73
2024/03/31 12:29:05;;;;;;;11.10;2.22;;;;;;;;;;5072795;28;20033;-73
2024/03/31 12:31:32;;;;;;;10.35;2.00;;;;;;;;;;5072438;28;20071;-73
2024/03/31 12:34:00;;;;;;;9.15;2.05;;;18.60;99.90;;;;;;5072654;28;20024;-73
2024/03/31 12:36:27;;;;;;;10.88;2.30;;;;;;;;;;5072663;28;20582;-73
2024/03/31 12:38:57;;;;;;;4.90;1.73;;;18.40;99.90;;;;;;5072329;28;20025;-73
2024/03/31 12:41:24;;;;;;;9.93;2.20;;;;;;;;;;5072424;28;20134;-73
2024/03/31 12:44:02;;;;;;;9.45;2.55;;;18.70;99.90;;;;;;5072717;28;20032;-74